Time;durP1;ratioP1;P1;durP2;ratioP2;P2;SDS_P1;SDS_P2;PMS_P1;PMS_P2;Temp;Humidity;BMP_temperature;BMP_pressure;BME280_temperature;BME280_humidity;BME280_pressure;Samples;Min_cycle;Max_cycle;Signal;HPM_P1;HPM_P2
2021/03/16 00:00:13;;;;;;;2.58;0.90;;;11.80;76.00;;;;;;5060295;28;20464;-48
2021/03/16 00:02:39;;;;;;;1.17;0.82;;;11.80;76.00;;;;;;5065621;28;20048;-49
2021/03/16 00:05:06;;;;;;;3.13;1.10;;;11.70;75.90;;;;;;5066505;28;20067;-44
2021/03/16 00:07:32;;;;;;;1.88;0.95;;;11.80;76.00;;;;;;5063783;28;20118;-46
2021/03/16 00:09:58;;;;;;;2.70;1.17;;;11.70;75.90;;;;;;5064745;28;20045;-43
2021/03/16 00:12:24;;;;;;;2.78;0.90;;;11.70;75.90;;;;;;5064429;28;20055;-46
2021/03/16 00:14:49;;;;;;;4.25;1.20;;;11.70;75.90;;;;;;5064194;28;20112;-47
2021/03/16 00:17:15;;;;;;;1.25;0.80;;;11.70;75.90;;;;;;5065039;28;20123;-47
2021/03/16 00:19:41;;;;;;;1.55;1.08;;;11.70;75.90;;;;;;5065483;28;20060;-43
2021/03/16 00:22:07;;;;;;;1.90;0.98;;;11.70;75.90;;;;;;5065593;28;20044;-46
2021/03/16 00:24:33;;;;;;;4.07;0.95;;;11.70;75.90;;;;;;5064314;28;20481;-46
2021/03/16 00:26:58;;;;;;;3.50;1.00;;;11.70;75.90;;;;;;5065224;28;20086;-46
2021/03/16 00:29:24;;;;;;;2.88;1.20;;;11.70;75.90;;;;;;5064667;28;20139;-44
2021/03/16 00:31:50;;;;;;;2.28;1.00;;;11.70;75.90;;;;;;5066116;28;20047;-45
2021/03/16 00:34:16;;;;;;;3.70;1.33;;;11.70;75.90;;;;;;5064485;28;20090;-44
2021/03/16 00:36:41;;;;;;;1.95;1.13;;;11.70;75.90;;;;;;5064112;28;20147;-45
2021/03/16 00:39:07;;;;;;;2.38;0.80;;;11.70;75.90;;;;;;5063698;28;20052;-44
2021/03/16 00:41:34;;;;;;;4.28;1.75;;;11.70;76.00;;;;;;5064634;28;20564;-44
2021/03/16 00:44:00;;;;;;;3.60;0.90;;;11.70;75.90;;;;;;5063919;28;20405;-45
2021/03/16 00:46:26;;;;;;;2.00;0.90;;;11.70;75.90;;;;;;5063759;28;20118;-44
2021/03/16 00:48:51;;;;;;;1.92;0.95;;;11.70;76.00;;;;;;5063900;28;20040;-44
2021/03/16 00:51:17;;;;;;;2.42;0.80;;;11.70;76.00;;;;;;5064057;28;20048;-45
2021/03/16 00:53:43;;;;;;;2.05;1.00;;;11.70;76.00;;;;;;5063506;28;20040;-48
2021/03/16 00:56:09;;;;;;;3.33;0.90;;;11.80;76.00;;;;;;5064503;28;20048;-46
2021/03/16 00:58:35;;;;;;;4.13;1.17;;;11.80;76.00;;;;;;5065111;28;20049;-45
2021/03/16 01:01:01;;;;;;;1.85;0.80;;;11.70;76.00;;;;;;5064957;28;20052;-44
2021/03/16 01:03:27;;;;;;;1.55;1.17;;;11.70;76.00;;;;;;5064540;28;20136;-46
2021/03/16 01:05:54;;;;;;;3.15;1.30;;;11.70;76.00;;;;;;5063722;28;20045;-46
2021/03/16 01:08:21;;;;;;;2.30;0.68;;;11.70;76.00;;;;;;5064490;28;20036;-43
2021/03/16 01:10:48;;;;;;;1.70;0.93;;;11.70;76.00;;;;;;5063482;28;20097;-47
2021/03/16 01:13:14;;;;;;;1.75;0.68;;;11.70;76.00;;;;;;5062996;28;20041;-44
2021/03/16 01:15:40;;;;;;;2.58;0.80;;;11.70;76.00;;;;;;5064701;28;20059;-45
2021/03/16 01:18:06;;;;;;;2.95;0.88;;;11.70;76.00;;;;;;5064965;28;20392;-45
2021/03/16 01:20:32;;;;;;;1.17;0.82;;;11.70;76.00;;;;;;5057952;28;20048;-46
2021/03/16 01:22:58;;;;;;;2.85;1.00;;;11.70;76.00;;;;;;5065095;28;20052;-47
2021/03/16 01:25:24;;;;;;;2.85;0.73;;;11.70;76.00;;;;;;5063074;28;20120;-48
2021/03/16 01:27:50;;;;;;;2.22;0.80;;;11.70;76.00;;;;;;5061890;28;20052;-44
2021/03/16 01:30:16;;;;;;;2.28;0.90;;;11.70;76.00;;;;;;5064677;28;20101;-47
2021/03/16 01:32:44;;;;;;;2.22;1.05;;;11.70;76.00;;;;;;5064703;28;20045;-43
2021/03/16 01:35:12;;;;;;;1.48;0.88;;;11.70;76.00;;;;;;5062421;28;20394;-47
2021/03/16 01:37:39;;;;;;;0.90;0.80;;;11.70;76.00;;;;;;5062306;28;20045;-44
2021/03/16 01:40:15;;;;;;;4.22;1.00;;;11.70;76.00;;;;;;5064288;28;20052;-45
2021/03/16 01:42:42;;;;;;;1.98;1.08;;;11.70;76.00;;;;;;5061487;28;20063;-44
2021/03/16 01:45:17;;;;;;;1.17;0.60;;;11.70;76.00;;;;;;5064104;28;20059;-45
2021/03/16 01:47:48;;;;;;;1.67;1.10;;;11.70;76.00;;;;;;5062779;28;20053;-44
2021/03/16 01:50:20;;;;;;;2.25;1.08;;;11.70;76.00;;;;;;5061644;28;20045;-47
2021/03/16 01:52:47;;;;;;;2.45;1.20;;;11.70;76.00;;;;;;5063404;28;20066;-44
2021/03/16 01:55:14;;;;;;;0.93;0.60;;;11.70;76.00;;;;;;5062363;28;20166;-45
2021/03/16 01:57:41;;;;;;;1.42;0.63;;;11.70;76.00;;;;;;5061377;28;20506;-45
2021/03/16 02:00:09;;;;;;;1.83;0.80;;;11.70;76.00;;;;;;5063813;28;20069;-45
2021/03/16 02:02:36;;;;;;;2.53;0.77;;;11.70;76.00;;;;;;5063941;28;20056;-44
2021/03/16 02:05:07;;;;;;;1.60;0.80;;;11.70;76.00;;;;;;5062320;28;20054;-45
2021/03/16 02:07:41;;;;;;;2.83;0.98;;;11.70;76.10;;;;;;5061671;28;20048;-45
2021/03/16 02:10:21;;;;;;;2.53;0.68;;;11.70;76.00;;;;;;5064311;28;20049;-45
2021/03/16 02:13:00;;;;;;;2.33;0.90;;;11.70;76.00;;;;;;5061363;28;20106;-47
2021/03/16 02:15:34;;;;;;;2.67;0.82;;;11.70;76.00;;;;;;5064969;28;20131;-45
2021/03/16 02:18:08;;;;;;;1.55;0.90;;;11.70;76.10;;;;;;5062881;28;20083;-46
2021/03/16 02:20:52;;;;;;;1.00;0.75;;;11.70;76.10;;;;;;5060452;28;20507;-48
2021/03/16 02:23:40;;;;;;;3.95;1.10;;;11.70;76.00;;;;;;5062087;28;20041;-44
2021/03/16 02:26:37;;;;;;;0.80;0.55;;;11.70;76.00;;;;;;5059101;28;20056;-44
2021/03/16 02:29:14;;;;;;;1.85;0.85;;;11.70;76.10;;;;;;5061207;28;20114;-47
2021/03/16 02:31:45;;;;;;;1.90;1.00;;;11.70;76.00;;;;;;5063438;28;20041;-46
2021/03/16 02:34:16;;;;;;;2.22;0.82;;;11.70;76.00;;;;;;5061927;28;20131;-47
2021/03/16 02:36:43;;;;;;;1.10;0.60;;;11.70;76.10;;;;;;5061888;28;20140;-43
2021/03/16 02:39:10;;;;;;;1.77;0.70;;;11.70;76.70;;;;;;5061398;28;20045;-44
2021/03/16 02:41:38;;;;;;;1.85;0.85;;;11.70;76.10;;;;;;5062018;28;20485;-45
2021/03/16 02:44:05;;;;;;;3.67;1.08;;;11.70;76.10;;;;;;5061857;28;20041;-47
2021/03/16 02:46:32;;;;;;;1.50;0.75;;;11.70;76.00;;;;;;5060524;28;20052;-45
2021/03/16 02:48:58;;;;;;;2.45;0.82;;;11.70;76.10;;;;;;5058813;28;20118;-44
2021/03/16 02:51:24;;;;;;;0.60;0.50;;;11.70;76.70;;;;;;5061971;28;20044;-44
2021/03/16 02:53:53;;;;;;;1.80;1.02;;;11.70;76.10;;;;;;5062579;28;20055;-47
2021/03/16 02:56:20;;;;;;;0.65;0.65;;;11.70;76.10;;;;;;5060020;28;20040;-47
2021/03/16 02:58:49;;;;;;;1.38;0.77;;;11.70;76.10;;;;;;5063237;28;20500;-43
2021/03/16 03:01:16;;;;;;;1.75;0.80;;;11.70;76.40;;;;;;5060979;28;20094;-45
2021/03/16 03:03:45;;;;;;;2.38;0.90;;;11.70;76.10;;;;;;5061107;28;20567;-49
2021/03/16 03:06:16;;;;;;;2.03;0.80;;;11.70;76.10;;;;;;5060383;28;20049;-44
2021/03/16 03:08:47;;;;;;;1.90;0.90;;;11.70;76.10;;;;;;5062067;28;20139;-44
2021/03/16 03:11:13;;;;;;;1.70;0.85;;;11.70;76.10;;;;;;5061197;28;20139;-49
2021/03/16 03:13:40;;;;;;;0.68;0.47;;;11.70;76.10;;;;;;5062050;28;20049;-47
2021/03/16 03:16:06;;;;;;;1.27;0.88;;;11.70;76.10;;;;;;5064730;28;20103;-49
2021/03/16 03:18:33;;;;;;;1.85;0.80;;;11.70;76.10;;;;;;5060654;28;20912;-46
2021/03/16 03:21:05;;;;;;;1.63;0.80;;;11.70;76.10;;;;;;5061026;28;20114;-48
2021/03/16 03:23:34;;;;;;;1.33;0.70;;;11.70;76.10;;;;;;5062909;28;20059;-48
2021/03/16 03:26:14;;;;;;;1.70;0.77;;;11.70;76.10;;;;;;5058673;28;20044;-42
2021/03/16 03:28:43;;;;;;;2.00;0.85;;;11.70;76.10;;;;;;5061859;28;20045;-49
2021/03/16 03:31:09;;;;;;;2.17;0.80;;;11.70;76.10;;;;;;5060671;28;20068;-49
2021/03/16 03:33:38;;;;;;;2.88;1.10;;;11.70;76.10;;;;;;5060639;28;20091;-45
2021/03/16 03:36:04;;;;;;;0.70;0.60;;;11.70;76.10;;;;;;5062761;28;20044;-47
2021/03/16 03:38:31;;;;;;;0.70;0.60;;;11.70;76.20;;;;;;5065177;28;20045;-45
2021/03/16 03:40:58;;;;;;;1.48;0.73;;;11.70;76.10;;;;;;5066202;28;20064;-48
2021/03/16 03:43:25;;;;;;;1.35;0.55;;;11.60;76.00;;;;;;5062413;28;20848;-47
2021/03/16 03:45:52;;;;;;;0.85;0.50;;;11.70;76.10;;;;;;5066862;28;20127;-47
2021/03/16 03:48:20;;;;;;;1.70;1.20;;;11.70;76.10;;;;;;5065508;28;20044;-47
2021/03/16 03:50:50;;;;;;;1.67;0.80;;;11.70;76.10;;;;;;5064866;28;20083;-48
2021/03/16 03:53:17;;;;;;;0.82;0.73;;;11.70;76.10;;;;;;5064625;28;20484;-45
2021/03/16 03:55:45;;;;;;;0.77;0.57;;;11.70;76.10;;;;;;5065235;28;20048;-46
2021/03/16 03:58:11;;;;;;;1.38;0.75;;;11.70;76.10;;;;;;5067671;28;20048;-45
2021/03/16 04:00:38;;;;;;;1.63;0.75;;;11.70;76.10;;;;;;5063806;28;20112;-47
2021/03/16 04:03:05;;;;;;;1.30;0.57;;;11.70;76.10;;;;;;5064311;28;20061;-45
2021/03/16 04:05:31;;;;;;;1.45;1.02;;;11.70;76.80;;;;;;5064621;28;20106;-50
2021/03/16 04:07:58;;;;;;;1.33;0.70;;;11.70;76.10;;;;;;5066715;28;20468;-44
2021/03/16 04:10:25;;;;;;;1.73;0.70;;;11.70;76.10;;;;;;5065235;28;20080;-44
2021/03/16 04:12:52;;;;;;;1.17;0.70;;;11.70;76.10;;;;;;5063970;28;20052;-45
2021/03/16 04:15:18;;;;;;;2.13;0.70;;;11.70;76.10;;;;;;5064655;28;20476;-44
2021/03/16 04:17:45;;;;;;;0.73;0.60;;;11.60;76.00;;;;;;5064272;28;20501;-46
2021/03/16 04:20:13;;;;;;;1.95;0.63;;;11.70;76.10;;;;;;5065681;28;20066;-47
2021/03/16 04:22:40;;;;;;;1.08;0.70;;;11.70;76.10;;;;;;5063668;28;20404;-44
2021/03/16 04:25:06;;;;;;;2.80;0.82;;;11.70;76.10;;;;;;5065644;28;20098;-45
2021/03/16 04:27:33;;;;;;;1.77;0.70;;;11.70;76.10;;;;;;5063653;28;20076;-47
2021/03/16 04:29:58;;;;;;;3.88;0.80;;;11.70;76.10;;;;;;5063582;28;20151;-44
2021/03/16 04:32:24;;;;;;;1.17;0.60;;;11.60;76.00;;;;;;5064724;28;20516;-46
2021/03/16 04:34:50;;;;;;;1.25;0.50;;;11.60;76.00;;;;;;5063832;28;20083;-44
2021/03/16 04:37:15;;;;;;;1.90;1.10;;;11.60;76.10;;;;;;5066147;28;20044;-44
2021/03/16 04:39:41;;;;;;;1.17;0.60;;;11.70;76.10;;;;;;5063692;28;20083;-44
2021/03/16 04:42:07;;;;;;;0.93;0.63;;;11.70;76.10;;;;;;5065829;28;20047;-45
2021/03/16 04:44:33;;;;;;;1.77;0.73;;;11.60;76.70;;;;;;5063275;28;20139;-43
2021/03/16 04:46:58;;;;;;;0.40;0.40;;;11.70;76.10;;;;;;5063324;28;20037;-44
2021/03/16 04:49:24;;;;;;;1.23;0.50;;;11.70;76.10;;;;;;5065082;28;20080;-44
2021/03/16 04:51:50;;;;;;;2.50;0.90;;;11.70;76.10;;;;;;5064602;28;20052;-45
2021/03/16 04:54:16;;;;;;;0.82;0.50;;;11.70;76.10;;;;;;5065002;28;20068;-44
2021/03/16 04:56:41;;;;;;;0.88;0.52;;;11.70;76.10;;;;;;5063552;28;20090;-43
2021/03/16 04:59:07;;;;;;;1.95;0.88;;;11.60;76.00;;;;;;5065243;28;20485;-45
2021/03/16 05:01:33;;;;;;;1.67;0.80;;;11.70;76.10;;;;;;5059159;28;20045;-44
2021/03/16 05:03:59;;;;;;;1.88;0.60;;;11.60;76.00;;;;;;5064382;28;20044;-43
2021/03/16 05:06:25;;;;;;;1.27;0.60;;;11.60;76.00;;;;;;5064762;28;20072;-46
2021/03/16 05:08:51;;;;;;;2.20;0.95;;;11.70;76.10;;;;;;5061946;28;20049;-48
2021/03/16 05:11:17;;;;;;;2.47;1.02;;;11.70;76.10;;;;;;5064884;28;20040;-44
2021/03/16 05:13:43;;;;;;;2.28;0.68;;;11.60;76.00;;;;;;5063866;28;20053;-43
2021/03/16 05:16:09;;;;;;;1.00;0.80;;;11.60;76.00;;;;;;5062297;28;20045;-47
2021/03/16 05:18:35;;;;;;;1.67;0.73;;;11.60;76.00;;;;;;5064880;28;20144;-45
2021/03/16 05:21:01;;;;;;;2.85;0.88;;;11.60;76.00;;;;;;5064282;28;20040;-43
2021/03/16 05:23:27;;;;;;;1.90;0.70;;;11.70;76.10;;;;;;5063075;28;20040;-44
2021/03/16 05:25:53;;;;;;;2.08;0.80;;;11.70;76.10;;;;;;5065199;28;20045;-45
2021/03/16 05:28:19;;;;;;;1.85;0.60;;;11.60;76.00;;;;;;5063143;28;20048;-46
2021/03/16 05:30:44;;;;;;;1.13;0.70;;;11.60;76.00;;;;;;5061528;28;20072;-47
2021/03/16 05:33:12;;;;;;;0.82;0.65;;;11.60;76.00;;;;;;5066128;28;20055;-45
2021/03/16 05:35:42;;;;;;;1.25;0.63;;;11.60;76.00;;;;;;5064307;28;20503;-46
2021/03/16 05:38:09;;;;;;;1.30;0.80;;;11.60;76.00;;;;;;5061914;28;20049;-47
2021/03/16 05:40:35;;;;;;;1.23;0.60;;;11.60;76.00;;;;;;5046190;28;20059;-45
2021/03/16 05:43:01;;;;;;;1.80;0.57;;;11.60;76.00;;;;;;5063274;28;20040;-44
2021/03/16 05:45:27;;;;;;;1.48;0.60;;;11.60;76.00;;;;;;5063806;28;20041;-46
2021/03/16 05:47:57;;;;;;;2.63;0.93;;;11.70;76.10;;;;;;5064137;28;20041;-45
2021/03/16 05:50:24;;;;;;;1.10;0.70;;;11.60;76.00;;;;;;5062522;28;20087;-44
2021/03/16 05:52:53;;;;;;;1.52;0.60;;;11.60;76.10;;;;;;5062547;28;20045;-44
2021/03/16 05:55:20;;;;;;;2.25;0.77;;;11.60;76.00;;;;;;5064627;28;20037;-45
2021/03/16 05:57:51;;;;;;;1.92;0.60;;;11.60;76.00;;;;;;5061830;28;20550;-45
2021/03/16 06:00:17;;;;;;;2.13;0.75;;;11.60;76.00;;;;;;5061423;28;20126;-44
2021/03/16 06:02:46;;;;;;;1.63;0.65;;;11.60;76.40;;;;;;5062444;28;20047;-42
2021/03/16 06:05:12;;;;;;;1.52;0.80;;;11.60;76.10;;;;;;5060359;28;20037;-49
2021/03/16 06:07:47;;;;;;;1.75;0.93;;;11.60;76.00;;;;;;5062539;28;20045;-47
2021/03/16 06:10:18;;;;;;;1.17;0.50;;;11.60;76.00;;;;;;5062711;28;20080;-44
2021/03/16 06:12:44;;;;;;;0.70;0.55;;;11.60;76.00;;;;;;5053903;28;20052;-44
2021/03/16 06:15:15;;;;;;;1.40;0.73;;;11.60;76.00;;;;;;5054142;28;20049;-42
2021/03/16 06:17:45;;;;;;;1.13;0.60;;;11.60;76.00;;;;;;5057295;28;20048;-44
2021/03/16 06:20:27;;;;;;;1.92;0.70;;;11.60;76.00;;;;;;5073582;28;20074;-43
2021/03/16 06:23:07;;;;;;;1.30;0.77;;;11.70;76.00;;;;;;5072576;28;20423;-43
2021/03/16 06:25:34;;;;;;;2.05;0.73;;;11.60;76.00;;;;;;5073005;28;20060;-42
2021/03/16 06:28:05;;;;;;;1.88;0.80;;;11.60;76.00;;;;;;5071623;28;20525;-43
2021/03/16 06:30:32;;;;;;;0.70;0.52;;;11.60;76.00;;;;;;5072703;28;20443;-44
2021/03/16 06:32:59;;;;;;;2.03;0.70;;;11.60;76.00;;;;;;5073209;28;20049;-44
2021/03/16 06:35:25;;;;;;;0.93;0.82;;;11.60;76.00;;;;;;5073346;28;20052;-45
2021/03/16 06:38:00;;;;;;;2.28;1.00;;;11.60;76.00;;;;;;5071013;28;20053;-46
2021/03/16 06:40:30;;;;;;;2.17;0.90;;;11.70;76.10;;;;;;5072967;28;20499;-44
2021/03/16 06:43:04;;;;;;;2.42;0.52;;;11.60;76.00;;;;;;5073170;28;20048;-49
2021/03/16 06:45:31;;;;;;;0.50;0.40;;;11.60;76.00;;;;;;5072701;28;20428;-50
2021/03/16 06:47:57;;;;;;;1.73;0.82;;;11.60;76.00;;;;;;5070823;28;20084;-49
2021/03/16 06:50:31;;;;;;;0.88;0.52;;;11.60;76.00;;;;;;5061990;28;20075;-50
2021/03/16 06:52:57;;;;;;;0.47;0.47;;;11.60;76.00;;;;;;5062897;28;20094;-49
2021/03/16 06:55:24;;;;;;;2.15;0.65;;;11.60;76.00;;;;;;5061998;28;20048;-48
2021/03/16 06:57:50;;;;;;;0.50;0.47;;;11.60;76.00;;;;;;5062435;28;20048;-46
2021/03/16 07:00:16;;;;;;;1.45;0.80;;;11.60;76.00;;;;;;5063035;28;20101;-50
2021/03/16 07:02:42;;;;;;;1.48;0.75;;;11.60;76.00;;;;;;5061507;28;20048;-46
2021/03/16 07:05:08;;;;;;;2.03;0.75;;;11.60;76.00;;;;;;5062039;28;20041;-47
2021/03/16 07:07:35;;;;;;;0.80;0.52;;;11.60;76.00;;;;;;5057455;28;20037;-44
2021/03/16 07:10:03;;;;;;;1.25;0.60;;;11.60;76.00;;;;;;5059313;28;20197;-45
2021/03/16 07:12:33;;;;;;;2.38;0.73;;;11.60;76.00;;;;;;5045227;28;20063;-46
2021/03/16 07:15:00;;;;;;;2.13;0.63;;;11.60;76.00;;;;;;5060588;28;20511;-44
2021/03/16 07:17:27;;;;;;;2.92;0.60;;;11.60;76.00;;;;;;5062351;28;20435;-45
2021/03/16 07:20:03;;;;;;;0.68;0.50;;;11.60;76.00;;;;;;5062599;28;20052;-45
2021/03/16 07:22:35;;;;;;;2.83;0.60;;;11.60;76.00;;;;;;5061730;28;20447;-45
2021/03/16 07:25:05;;;;;;;1.95;0.50;;;11.60;76.00;;;;;;5052389;28;20049;-45
2021/03/16 07:27:32;;;;;;;1.50;0.50;;;11.60;76.00;;;;;;5050821;28;20056;-45
2021/03/16 07:29:58;;;;;;;1.20;0.70;;;11.60;76.00;;;;;;5052806;28;20053;-44
2021/03/16 07:32:24;;;;;;;3.25;0.90;;;11.60;76.00;;;;;;5052538;28;20103;-45
2021/03/16 07:34:51;;;;;;;2.35;0.60;;;11.60;76.00;;;;;;5052146;28;20048;-43
2021/03/16 07:37:17;;;;;;;1.73;0.50;;;11.60;76.00;;;;;;5051224;28;20053;-45
2021/03/16 07:39:43;;;;;;;1.83;0.55;;;11.60;76.00;;;;;;5052450;28;20052;-45
2021/03/16 07:42:10;;;;;;;1.17;0.50;;;11.60;76.00;;;;;;5053753;28;20049;-42
2021/03/16 07:44:43;;;;;;;1.30;0.77;;;11.60;76.00;;;;;;5051972;28;20056;-45
2021/03/16 07:47:09;;;;;;;0.77;0.43;;;11.60;76.00;;;;;;5053177;28;20437;-40
2021/03/16 07:49:39;;;;;;;1.05;0.50;;;11.60;76.00;;;;;;5062722;28;20466;-46
2021/03/16 07:52:18;;;;;;;1.58;0.85;;;11.60;76.00;;;;;;5051972;28;20485;-44
2021/03/16 07:54:48;;;;;;;1.45;0.60;;;11.60;76.00;;;;;;5068924;28;20044;-46
2021/03/16 07:57:26;;;;;;;0.63;0.40;;;11.60;76.00;;;;;;5055931;28;20390;-45
2021/03/16 08:00:05;;;;;;;1.88;0.60;;;11.60;76.00;;;;;;5051857;28;20049;-45
2021/03/16 08:02:32;;;;;;;1.58;0.55;;;11.60;76.00;;;;;;5055588;28;20052;-42
2021/03/16 08:04:58;;;;;;;0.73;0.60;;;11.60;76.00;;;;;;5061396;28;20053;-40
2021/03/16 08:07:27;;;;;;;1.48;0.52;;;11.60;76.00;;;;;;5059443;28;20056;-43
2021/03/16 08:09:57;;;;;;;1.38;0.68;;;11.60;76.10;;;;;;5062310;28;20044;-45
2021/03/16 08:12:27;;;;;;;1.67;0.65;;;11.60;76.00;;;;;;5064999;28;20047;-43
2021/03/16 08:14:54;;;;;;;1.10;0.82;;;11.60;76.00;;;;;;5068230;28;20049;-44
2021/03/16 08:17:30;;;;;;;1.58;0.70;;;11.60;76.00;;;;;;5070556;28;20480;-46
2021/03/16 08:19:55;;;;;;;;;;;11.60;76.00;;;;;;5069070;28;20045;-44
2021/03/16 08:22:22;;;;;;;;;;;11.60;76.00;;;;;;5073033;28;19920;-44
2021/03/16 08:24:52;;;;;;;2.13;0.90;;;11.60;76.00;;;;;;5075136;28;20345;-43
2021/03/16 08:27:18;;;;;;;1.05;0.60;;;11.60;76.00;;;;;;5070903;28;20496;-44
2021/03/16 08:29:49;;;;;;;1.38;0.52;;;11.60;76.00;;;;;;5066034;28;20056;-45
2021/03/16 08:32:17;;;;;;;1.02;0.52;;;11.60;76.00;;;;;;5064295;28;20045;-44
2021/03/16 08:34:44;;;;;;;1.48;0.68;;;11.60;76.00;;;;;;5064412;28;20140;-43
2021/03/16 08:37:39;;;;;;;0.77;0.57;;;11.60;76.00;;;;;;5055485;28;20546;-41
2021/03/16 08:40:08;;;;;;;0.80;0.50;;;11.60;76.00;;;;;;4965049;28;20422;-44
2021/03/16 08:42:33;;;;;;;2.05;0.88;;;11.60;76.00;;;;;;4963673;28;20047;-42
2021/03/16 08:44:59;;;;;;;0.95;0.70;;;11.70;76.10;;;;;;4963654;28;20078;-45
2021/03/16 08:47:27;;;;;;;0.68;0.50;;;11.70;76.10;;;;;;4964486;28;20065;-47
2021/03/16 08:49:55;;;;;;;10.73;3.03;;;11.70;76.10;;;;;;4962883;28;20598;-46
2021/03/16 08:52:25;;;;;;;9.23;2.17;;;12.10;74.80;;;;;;4963574;28;20055;-45
2021/03/16 08:54:55;;;;;;;8.15;2.20;;;12.20;72.20;;;;;;4965099;28;20049;-49
2021/03/16 08:57:25;;;;;;;11.65;3.28;;;12.80;72.00;;;;;;4963678;28;20047;-46
2021/03/16 08:59:56;;;;;;;11.32;2.40;;;12.70;69.10;;;;;;4962195;28;20043;-48
2021/03/16 09:02:24;;;;;;;12.00;3.60;;;12.30;68.50;;;;;;4980027;28;20051;-48
2021/03/16 09:04:50;;;;;;;11.70;2.45;;;11.90;68.50;;;;;;4964851;28;20089;-48
2021/03/16 09:07:26;;;;;;;9.88;2.55;;;11.50;68.60;;;;;;4962228;28;20086;-45
2021/03/16 09:10:07;;;;;;;13.10;2.60;;;11.20;69.10;;;;;;4959667;28;20047;-46
2021/03/16 09:12:35;;;;;;;13.50;2.40;;;11.10;69.60;;;;;;4954705;29;20061;-45
2021/03/16 09:15:21;;;;;;;5.55;1.90;;;11.10;70.00;;;;;;4973214;28;20063;-43
2021/03/16 09:17:50;;;;;;;7.50;2.33;;;11.10;70.10;;;;;;5062724;28;20457;-45
2021/03/16 09:20:19;;;;;;;9.60;1.90;;;11.10;70.40;;;;;;5054334;28;20126;-41
2021/03/16 09:22:51;;;;;;;7.88;1.95;;;11.10;70.50;;;;;;5054506;28;20056;-43
2021/03/16 09:25:17;;;;;;;6.38;2.30;;;11.20;70.80;;;;;;5054740;28;20099;-39
2021/03/16 09:27:43;;;;;;;5.00;1.83;;;11.20;71.00;;;;;;5055156;28;20091;-42
2021/03/16 09:30:10;;;;;;;7.25;2.05;;;11.20;71.20;;;;;;5074720;28;20052;-43
2021/03/16 09:32:41;;;;;;;6.60;2.53;;;11.30;71.40;;;;;;5073889;28;20045;-40
2021/03/16 09:35:08;;;;;;;4.35;1.70;;;11.30;71.60;;;;;;5073159;28;20052;-48
2021/03/16 09:37:48;;;;;;;6.40;1.88;;;11.30;71.80;;;;;;5073937;28;20111;-42
2021/03/16 09:40:14;;;;;;;5.85;1.42;;;11.30;71.90;;;;;;5074396;28;20044;-43
2021/03/16 09:42:46;;;;;;;7.18;2.15;;;11.40;72.10;;;;;;5073536;28;20121;-46
2021/03/16 09:45:18;;;;;;;6.15;1.88;;;11.40;72.30;;;;;;5074204;28;20049;-41
2021/03/16 09:47:45;;;;;;;5.88;1.77;;;11.40;72.40;;;;;;5073879;28;20127;-45
2021/03/16 09:50:23;;;;;;;5.13;1.80;;;11.40;72.50;;;;;;5071832;28;20048;-42
2021/03/16 09:52:58;;;;;;;6.40;2.33;;;11.50;72.70;;;;;;5073500;28;20097;-43
2021/03/16 09:55:25;;;;;;;6.17;1.60;;;11.50;72.80;;;;;;5073587;28;20055;-45
2021/03/16 09:57:51;;;;;;;5.03;2.03;;;11.50;72.90;;;;;;5073006;28;20295;-39
2021/03/16 10:00:18;;;;;;;6.10;1.80;;;11.50;72.90;;;;;;5071758;28;20040;-42
2021/03/16 10:02:44;;;;;;;5.25;1.77;;;11.50;73.00;;;;;;5073196;28;20075;-42
2021/03/16 10:05:18;;;;;;;5.60;1.20;;;11.50;73.10;;;;;;5068372;28;20559;-42
2021/03/16 10:07:52;;;;;;;5.05;1.65;;;11.50;73.10;;;;;;5053337;28;20045;-46
2021/03/16 10:10:20;;;;;;;4.07;1.30;;;11.50;73.20;;;;;;5053537;28;20143;-44
2021/03/16 10:12:50;;;;;;;4.68;1.50;;;11.60;73.30;;;;;;5053896;28;20077;-43
2021/03/16 10:15:22;;;;;;;4.90;1.40;;;11.60;74.00;;;;;;5053326;28;20049;-41
2021/03/16 10:17:48;;;;;;;3.38;1.30;;;11.60;73.40;;;;;;5053758;28;20049;-45
2021/03/16 10:20:16;;;;;;;4.53;1.35;;;11.60;73.50;;;;;;5050735;28;20049;-44
2021/03/16 10:22:42;;;;;;;5.15;1.65;;;11.60;73.50;;;;;;5063552;28;20123;-40
2021/03/16 10:25:11;;;;;;;3.83;1.35;;;11.60;73.50;;;;;;5055241;28;20470;-43
2021/03/16 10:27:37;;;;;;;4.53;1.60;;;11.70;73.60;;;;;;5062152;28;20052;-43
2021/03/16 10:30:08;;;;;;;3.60;1.25;;;11.60;73.60;;;;;;5062727;28;20102;-41
2021/03/16 10:32:35;;;;;;;3.33;1.20;;;11.70;73.70;;;;;;5062686;28;20045;-42
2021/03/16 10:35:01;;;;;;;4.97;1.42;;;11.70;73.70;;;;;;5061060;28;20057;-41
2021/03/16 10:37:27;;;;;;;5.93;1.58;;;11.70;73.70;;;;;;5056608;28;20680;-43
2021/03/16 10:39:59;;;;;;;3.10;1.13;;;11.70;73.70;;;;;;5048039;28;20079;-46
2021/03/16 10:42:26;;;;;;;3.75;1.00;;;11.70;74.40;;;;;;5051606;28;20127;-45
2021/03/16 10:44:54;;;;;;;4.57;1.40;;;11.70;73.80;;;;;;5066884;28;20073;-42
2021/03/16 10:47:20;;;;;;;3.70;1.30;;;11.70;73.80;;;;;;5065622;28;20459;-42
2021/03/16 10:49:45;;;;;;;3.90;1.40;;;11.70;73.80;;;;;;5064026;28;20116;-45
2021/03/16 10:52:12;;;;;;;2.28;1.17;;;11.70;73.80;;;;;;5055772;28;20049;-45
2021/03/16 10:54:38;;;;;;;4.22;1.10;;;11.80;73.90;;;;;;5056201;28;20037;-46
2021/03/16 10:57:04;;;;;;;4.13;1.10;;;11.70;73.80;;;;;;5054659;28;20490;-46
2021/03/16 10:59:30;;;;;;;3.10;1.00;;;11.70;73.80;;;;;;5056452;28;20135;-48
2021/03/16 11:01:56;;;;;;;1.92;0.85;;;11.80;74.00;;;;;;5057108;28;20132;-45
2021/03/16 11:04:22;;;;;;;3.15;1.10;;;11.80;73.90;;;;;;5059454;28;20043;-47
2021/03/16 11:06:48;;;;;;;2.38;1.05;;;11.80;73.90;;;;;;5058096;28;20037;-43
2021/03/16 11:09:14;;;;;;;3.90;1.20;;;11.80;73.90;;;;;;5059479;28;20071;-43
2021/03/16 11:11:40;;;;;;;3.35;1.08;;;11.80;74.00;;;;;;5060336;28;20406;-40
2021/03/16 11:14:07;;;;;;;2.03;0.90;;;11.80;74.60;;;;;;5058652;28;20041;-43
2021/03/16 11:16:33;;;;;;;2.20;0.95;;;11.80;74.00;;;;;;5060266;28;20056;-40
2021/03/16 11:19:00;;;;;;;5.15;1.52;;;11.80;74.00;;;;;;5062505;28;20040;-43
2021/03/16 11:21:26;;;;;;;2.85;0.90;;;11.80;74.00;;;;;;5063004;28;20215;-43
2021/03/16 11:23:51;;;;;;;2.95;1.45;;;11.80;74.00;;;;;;5060603;28;20045;-46
2021/03/16 11:26:17;;;;;;;1.98;0.75;;;11.90;74.00;;;;;;5059738;28;20049;-47
2021/03/16 11:28:43;;;;;;;4.63;1.00;;;11.90;74.00;;;;;;5067008;28;20126;-45
2021/03/16 11:31:10;;;;;;;1.20;0.77;;;11.90;74.00;;;;;;5071765;28;20045;-45
2021/03/16 11:33:36;;;;;;;2.17;1.00;;;11.90;74.00;;;;;;5071079;28;20052;-41
2021/03/16 11:36:02;;;;;;;2.38;1.02;;;11.90;74.00;;;;;;5071571;28;20055;-41
2021/03/16 11:38:27;;;;;;;4.25;1.42;;;11.90;74.00;;;;;;5070202;28;20037;-47
2021/03/16 11:40:53;;;;;;;2.53;1.08;;;11.90;74.00;;;;;;5070786;28;20090;-43
2021/03/16 11:43:19;;;;;;;2.67;0.90;;;11.90;74.10;;;;;;5071461;28;20049;-44
2021/03/16 11:45:45;;;;;;;2.53;0.70;;;11.90;74.00;;;;;;5071604;28;20072;-44
2021/03/16 11:48:11;;;;;;;2.15;0.77;;;12.00;74.00;;;;;;5071026;28;20055;-47
2021/03/16 11:50:37;;;;;;;1.13;0.52;;;11.90;74.00;;;;;;5069661;28;20131;-42
2021/03/16 11:53:07;;;;;;;2.15;0.73;;;12.00;74.00;;;;;;5071859;28;20131;-40
2021/03/16 11:55:33;;;;;;;1.92;0.90;;;11.90;74.00;;;;;;5067760;28;20049;-46
2021/03/16 11:57:59;;;;;;;2.95;1.00;;;11.90;74.00;;;;;;5074632;28;20444;-39
2021/03/16 12:00:26;;;;;;;1.35;0.98;;;12.00;74.00;;;;;;5073988;28;20040;-40
2021/03/16 12:02:51;;;;;;;1.88;0.73;;;12.00;74.00;;;;;;5070801;28;20049;-40
2021/03/16 12:05:17;;;;;;;1.40;0.80;;;12.00;74.00;;;;;;5055212;28;20116;-46
2021/03/16 12:07:43;;;;;;;2.63;1.35;;;12.00;74.00;;;;;;5055144;28;20135;-43
2021/03/16 12:10:10;;;;;;;1.85;0.90;;;12.00;74.00;;;;;;5055606;28;20052;-40
2021/03/16 12:12:36;;;;;;;1.70;0.70;;;12.00;74.00;;;;;;5057298;28;20522;-40
2021/03/16 12:15:08;;;;;;;2.08;0.98;;;12.00;74.00;;;;;;5074328;28;20102;-40
2021/03/16 12:17:34;;;;;;;1.88;0.77;;;12.00;74.00;;;;;;5071907;28;20055;-43
2021/03/16 12:20:00;;;;;;;1.02;0.68;;;12.00;74.00;;;;;;5071929;28;20052;-48
2021/03/16 12:22:26;;;;;;;1.40;0.80;;;12.00;74.00;;;;;;5075831;28;20044;-42
2021/03/16 12:24:52;;;;;;;1.92;0.82;;;12.00;73.90;;;;;;5064891;28;20091;-42
2021/03/16 12:27:18;;;;;;;2.33;0.90;;;12.00;73.90;;;;;;5060668;28;20124;-42
2021/03/16 12:29:45;;;;;;;1.27;0.60;;;12.10;74.00;;;;;;5054372;28;20076;-46
2021/03/16 12:32:10;;;;;;;2.20;0.60;;;12.10;74.00;;;;;;5054965;28;20052;-46
2021/03/16 12:34:36;;;;;;;2.13;1.25;;;12.00;73.90;;;;;;5055971;28;20095;-42
2021/03/16 12:37:03;;;;;;;2.55;1.05;;;12.10;74.00;;;;;;5055310;28;20132;-42
2021/03/16 12:39:29;;;;;;;2.42;1.38;;;12.10;73.90;;;;;;5054869;28;20048;-44
2021/03/16 12:41:55;;;;;;;3.17;1.10;;;12.10;73.90;;;;;;5054142;28;20052;-44
2021/03/16 12:44:21;;;;;;;1.75;0.90;;;12.10;73.90;;;;;;5056548;28;20098;-44
2021/03/16 12:46:46;;;;;;;1.38;0.60;;;12.10;73.90;;;;;;5055219;28;20102;-42
2021/03/16 12:49:12;;;;;;;1.50;0.57;;;12.10;73.90;;;;;;5054600;28;20049;-42
2021/03/16 12:51:38;;;;;;;0.88;0.70;;;12.10;73.90;;;;;;5054542;28;20052;-45